Eureka, Arkansas
Current Conditions -  °F | °C
As of 5:57 AM on Thursday 23 Oct 2014 (Local Time) from KROG Reporting Station
Scattered Clouds Scattered Clouds  
Wind Chill: 54°   Ceiling: Unl
Heat Index: 54°   Visibility: 10mi
Dew Point: 49°   Wind: 5mph
Humidity: 83%   Direction: 100°E
Pressure: 30.16"   Gusts: NA
Location:  36.4036°N, 93.7443°W
Report Text: KROG 231057Z 10004KT 10SM SCT120 12/09 A3016 RMK AO2 SLP207 T01220094
Loading
Personal Weather Stations






























Interactive Weather Map
Tropical Storm Tracking
New forecast layout! Learn more

10-Day Weather Forecast

Advertisements
Track Severe Weather on mobile